Time,TemperatureF,DewpointF,PressureIn,WindDirection,WindDirectionDegrees,WindSpeedMPH,WindSpeedGustMPH,Humidity,HourlyPrecipIn,Conditions,Clouds,dailyrainin,SoftwareType,DateUTC
2013-05-16 00:02:00,46.2,24.4,30.05,NE,38,0.0,0.0,42,0.00,,---,0.00,VWS V14.01,2013-05-16 07:02:00,
2013-05-16 00:07:00,46.2,24.4,30.05,East,91,0.0,0.0,42,0.00,,---,0.00,VWS V14.01,2013-05-16 07:07:00,
2013-05-16 00:12:00,46.2,24.4,30.05,SE,133,0.0,0.0,42,0.00,,---,0.00,VWS V14.01,2013-05-16 07:12:00,
2013-05-16 00:18:00,46.0,24.2,30.05,SE,128,0.0,0.0,42,0.00,,---,0.00,VWS V14.01,2013-05-16 07:18:00,
2013-05-16 00:23:00,45.1,23.4,30.05,ESE,118,0.0,0.0,42,0.00,,---,0.00,VWS V14.01,2013-05-16 07:23:00,
2013-05-16 00:28:00,44.6,23.8,30.05,North,0,0.0,0.0,44,0.00,,---,0.00,VWS V14.01,2013-05-16 07:28:00,
2013-05-16 00:34:00,44.2,23.5,30.05,North,0,0.0,0.0,44,0.00,,---,0.00,VWS V14.01,2013-05-16 07:34:00,
2013-05-16 00:40:00,44.2,23.5,30.05,NNE,16,0.0,0.0,44,0.00,,---,0.00,VWS V14.01,2013-05-16 07:40:00,
2013-05-16 00:46:00,44.6,23.8,30.05,NNE,32,0.0,0.0,44,0.00,,---,0.00,VWS V14.01,2013-05-16 07:46:00,
2013-05-16 00:51:00,44.6,24.6,30.05,NNE,33,0.0,0.0,45,0.00,,---,0.00,VWS V14.01,2013-05-16 07:51:00,
2013-05-16 00:57:00,44.6,24.6,30.05,NNE,32,0.0,0.0,45,0.00,,---,0.00,VWS V14.01,2013-05-16 07:57:00,
2013-05-16 01:03:00,44.8,24.8,30.05,NNE,32,0.0,0.0,45,0.00,,---,0.00,VWS V14.01,2013-05-16 08:03:00,
2013-05-16 01:09:00,45.0,24.9,30.05,NNE,32,0.0,0.0,45,0.00,,---,0.00,VWS V14.01,2013-05-16 08:09:00,
2013-05-16 01:14:00,45.0,24.9,30.05,NE,47,0.0,0.0,45,0.00,,---,0.00,VWS V14.01,2013-05-16 08:14:00,
2013-05-16 01:20:00,44.1,24.9,30.05,NE,44,0.0,0.0,46,0.00,,---,0.00,VWS V14.01,2013-05-16 08:20:00,
2013-05-16 01:26:00,42.8,23.7,30.05,North,1,0.0,0.0,46,0.00,,---,0.00,VWS V14.01,2013-05-16 08:26:00,
2013-05-16 01:32:00,42.6,23.6,30.05,North,1,0.0,0.0,46,0.00,,---,0.00,VWS V14.01,2013-05-16 08:32:00,
2013-05-16 01:37:00,42.8,23.7,30.05,North,1,0.0,0.0,46,0.00,,---,0.00,VWS V14.01,2013-05-16 08:37:00,
2013-05-16 01:43:00,43.2,24.1,30.05,North,1,0.0,0.0,46,0.00,,---,0.00,VWS V14.01,2013-05-16 08:43:00,
2013-05-16 01:49:00,43.2,24.8,30.05,North,1,0.0,0.0,48,0.00,,---,0.00,VWS V14.01,2013-05-16 08:49:00,
2013-05-16 01:55:00,43.2,24.8,30.05,SE,124,0.0,0.0,48,0.00,,---,0.00,VWS V14.01,2013-05-16 08:55:00,
2013-05-16 02:01:00,43.0,24.6,30.05,SE,124,0.0,0.0,48,0.00,,---,0.00,VWS V14.01,2013-05-16 09:01:00,
2013-05-16 02:06:00,42.4,24.1,30.05,ENE,61,0.0,0.0,48,0.00,,---,0.00,VWS V14.01,2013-05-16 09:06:00,
2013-05-16 02:12:00,41.9,23.7,30.05,ENE,61,0.0,0.0,48,0.00,,---,0.00,VWS V14.01,2013-05-16 09:12:00,
2013-05-16 02:18:00,41.7,23.5,30.05,ENE,61,0.0,0.0,48,0.00,,---,0.00,VWS V14.01,2013-05-16 09:18:00,
2013-05-16 02:23:00,41.5,24.1,30.05,NE,54,0.0,0.0,50,0.00,,---,0.00,VWS V14.01,2013-05-16 09:23:00,
2013-05-16 02:29:00,41.2,23.7,30.05,NE,54,0.0,0.0,50,0.00,,---,0.00,VWS V14.01,2013-05-16 09:29:00,
2013-05-16 02:34:00,41.0,23.6,30.05,NE,54,0.0,0.0,50,0.00,,---,0.00,VWS V14.01,2013-05-16 09:34:00,
2013-05-16 02:39:00,40.8,24.1,30.05,NE,48,0.0,0.0,51,0.00,,---,0.00,VWS V14.01,2013-05-16 09:39:00,
2013-05-16 02:45:00,40.5,23.8,30.05,North,353,0.0,0.0,51,0.00,,---,0.00,VWS V14.01,2013-05-16 09:45:00,
2013-05-16 02:50:00,40.3,23.6,30.05,North,353,0.0,0.0,51,0.00,,---,0.00,VWS V14.01,2013-05-16 09:50:00,
2013-05-16 02:56:00,40.3,24.3,30.05,North,353,0.0,0.0,52,0.00,,---,0.00,VWS V14.01,2013-05-16 09:56:00,
2013-05-16 03:02:00,40.3,24.3,30.05,North,353,0.0,0.0,52,0.00,,---,0.00,VWS V14.01,2013-05-16 10:02:00,
2013-05-16 03:07:00,40.3,24.3,30.05,North,353,0.0,0.0,52,0.00,,---,0.00,VWS V14.01,2013-05-16 10:07:00,
2013-05-16 03:12:00,40.5,24.5,30.05,North,353,0.0,0.0,52,0.00,,---,0.00,VWS V14.01,2013-05-16 10:12:00,
2013-05-16 03:18:00,40.3,24.3,30.05,North,353,0.0,0.0,52,0.00,,---,0.00,VWS V14.01,2013-05-16 10:18:00,
2013-05-16 03:23:00,39.9,24.0,30.05,North,353,0.0,0.0,52,0.00,,---,0.00,VWS V14.01,2013-05-16 10:23:00,
2013-05-16 03:28:00,39.9,24.6,30.05,North,353,0.0,0.0,54,0.00,,---,0.00,VWS V14.01,2013-05-16 10:28:00,
2013-05-16 03:34:00,39.6,24.3,30.05,North,353,0.0,0.0,54,0.00,,---,0.00,VWS V14.01,2013-05-16 10:34:00,
2013-05-16 03:39:00,39.6,24.3,30.05,North,353,0.0,0.0,54,0.00,,---,0.00,VWS V14.01,2013-05-16 10:39:00,
2013-05-16 03:45:00,39.6,24.3,30.05,North,353,0.0,0.0,54,0.00,,---,0.00,VWS V14.01,2013-05-16 10:45:00,
2013-05-16 03:50:00,39.6,24.3,30.05,North,353,0.0,0.0,54,0.00,,---,0.00,VWS V14.01,2013-05-16 10:50:00,
2013-05-16 03:56:00,39.4,24.1,30.02,ENE,60,2.7,2.7,54,0.00,,---,0.00,VWS V14.01,2013-05-16 10:56:00,
2013-05-16 04:01:00,39.0,24.5,30.02,ENE,57,3.1,3.6,56,0.00,,---,0.00,VWS V14.01,2013-05-16 11:01:00,
2013-05-16 04:06:00,38.8,24.3,30.02,ENE,62,3.1,3.1,56,0.00,,---,0.00,VWS V14.01,2013-05-16 11:06:00,
2013-05-16 04:12:00,38.7,24.8,30.02,ENE,62,0.0,0.0,57,0.00,,---,0.00,VWS V14.01,2013-05-16 11:12:00,
2013-05-16 04:18:00,38.7,24.8,30.02,ENE,62,0.0,0.0,57,0.00,,---,0.00,VWS V14.01,2013-05-16 11:18:00,
2013-05-16 04:23:00,38.5,24.6,30.02,ENE,62,0.0,0.0,57,0.00,,---,0.00,VWS V14.01,2013-05-16 11:23:00,
2013-05-16 04:28:00,38.1,24.9,30.02,ENE,62,0.0,0.0,58,0.00,,---,0.00,VWS V14.01,2013-05-16 11:28:00,
2013-05-16 04:33:00,38.1,24.9,30.02,ENE,62,0.0,0.0,58,0.00,,---,0.00,VWS V14.01,2013-05-16 11:33:00,
2013-05-16 04:39:00,38.3,25.0,30.02,ENE,62,0.0,0.0,58,0.00,,---,0.00,VWS V14.01,2013-05-16 11:39:00,
2013-05-16 04:45:00,38.5,25.2,30.02,ENE,62,0.0,0.0,58,0.00,,---,0.00,VWS V14.01,2013-05-16 11:45:00,
2013-05-16 04:50:00,38.5,25.2,30.02,ENE,62,0.0,0.0,58,0.00,,---,0.00,VWS V14.01,2013-05-16 11:50:00,
2013-05-16 04:56:00,38.1,24.9,30.02,ENE,62,0.0,0.0,58,0.00,,---,0.00,VWS V14.01,2013-05-16 11:56:00,
2013-05-16 05:01:00,37.8,24.5,30.02,ENE,62,0.0,0.0,58,0.00,,---,0.00,VWS V14.01,2013-05-16 12:01:00,
2013-05-16 05:07:00,37.6,24.4,30.02,ENE,62,0.0,0.0,58,0.00,,---,0.00,VWS V14.01,2013-05-16 12:07:00,
2013-05-16 05:12:00,37.4,24.8,30.02,ENE,62,0.0,0.0,60,0.00,,---,0.00,VWS V14.01,2013-05-16 12:12:00,
2013-05-16 05:18:00,37.0,24.5,30.02,ENE,62,0.0,0.0,60,0.00,,---,0.00,VWS V14.01,2013-05-16 12:18:00,
2013-05-16 05:23:00,37.0,24.5,30.02,ENE,62,0.0,0.0,60,0.00,,---,0.00,VWS V14.01,2013-05-16 12:23:00,
2013-05-16 05:28:00,37.2,24.6,30.02,ESE,106,0.0,0.0,60,0.00,,---,0.00,VWS V14.01,2013-05-16 12:28:00,
2013-05-16 05:34:00,37.6,25.0,30.02,SSE,150,0.0,0.0,60,0.00,,---,0.00,VWS V14.01,2013-05-16 12:34:00,
2013-05-16 05:39:00,37.8,25.1,30.02,SSE,149,0.0,0.0,60,0.00,,---,0.00,VWS V14.01,2013-05-16 12:39:00,
2013-05-16 05:45:00,37.8,25.1,30.02,SE,136,0.0,0.0,60,0.00,,---,0.00,VWS V14.01,2013-05-16 12:45:00,
2013-05-16 05:51:00,37.4,24.8,30.02,ENE,69,0.0,0.0,60,0.00,,---,0.00,VWS V14.01,2013-05-16 12:51:00,
2013-05-16 05:56:00,37.6,25.6,30.02,ENE,77,0.0,0.0,62,0.00,,---,0.00,VWS V14.01,2013-05-16 12:56:00,
2013-05-16 06:01:00,37.4,25.4,30.02,ENE,75,0.0,0.0,62,0.00,,---,0.00,VWS V14.01,2013-05-16 13:01:00,
2013-05-16 06:06:00,37.4,25.4,30.02,ENE,75,0.0,0.0,62,0.00,,---,0.00,VWS V14.01,2013-05-16 13:06:00,
2013-05-16 06:12:00,37.8,25.7,30.02,ENE,75,0.0,0.0,62,0.00,,---,0.00,VWS V14.01,2013-05-16 13:12:00,
2013-05-16 06:17:00,37.9,25.9,30.02,ENE,75,0.0,0.0,62,0.00,,---,0.00,VWS V14.01,2013-05-16 13:17:00,
2013-05-16 06:22:00,37.9,25.9,30.02,ENE,75,0.0,0.0,62,0.00,,---,0.00,VWS V14.01,2013-05-16 13:22:00,
2013-05-16 06:27:00,38.5,26.4,30.02,ENE,75,0.0,0.0,62,0.00,,---,0.00,VWS V14.01,2013-05-16 13:27:00,
2013-05-16 06:32:00,39.2,27.1,30.02,ENE,75,0.0,0.0,62,0.00,,---,0.00,VWS V14.01,2013-05-16 13:32:00,
2013-05-16 06:38:00,40.3,28.7,30.02,ESE,112,0.0,0.0,63,0.00,,---,0.00,VWS V14.01,2013-05-16 13:38:00,
2013-05-16 06:43:00,41.5,29.3,30.02,ESE,112,0.0,0.0,62,0.00,,---,0.00,VWS V14.01,2013-05-16 13:43:00,
2013-05-16 06:48:00,42.6,30.9,30.02,ESE,112,0.0,0.0,63,0.00,,---,0.00,VWS V14.01,2013-05-16 13:48:00,
2013-05-16 06:53:00,44.1,32.3,30.02,ESE,112,0.0,0.0,63,0.00,,---,0.00,VWS V14.01,2013-05-16 13:53:00,
2013-05-16 06:59:00,45.3,32.9,30.05,ESE,112,0.0,0.0,62,0.00,,---,0.00,VWS V14.01,2013-05-16 13:59:00,
2013-05-16 07:05:00,46.9,34.4,30.05,ESE,113,0.0,0.0,62,0.00,,---,0.00,VWS V14.01,2013-05-16 14:05:00,
2013-05-16 07:10:00,48.0,35.4,30.05,ESE,113,0.0,0.0,62,0.00,,---,0.00,VWS V14.01,2013-05-16 14:10:00,
2013-05-16 07:16:00,49.6,37.0,30.05,South,186,0.0,0.0,62,0.00,,---,0.00,VWS V14.01,2013-05-16 14:16:00,
2013-05-16 07:22:00,51.6,38.2,30.05,South,189,0.0,0.0,60,0.00,,---,0.00,VWS V14.01,2013-05-16 14:22:00,
2013-05-16 07:27:00,53.6,39.4,30.05,SSE,160,0.0,0.0,58,0.00,,---,0.00,VWS V14.01,2013-05-16 14:27:00,
2013-05-16 07:33:00,55.0,40.8,30.05,South,180,0.0,0.0,58,0.00,,---,0.00,VWS V14.01,2013-05-16 14:33:00,
2013-05-16 07:38:00,57.0,42.0,30.05,SSE,153,0.0,0.0,57,0.00,,---,0.00,VWS V14.01,2013-05-16 14:38:00,
2013-05-16 07:43:00,58.5,42.6,30.05,SSE,147,0.0,0.0,56,0.00,,---,0.00,VWS V14.01,2013-05-16 14:43:00,
2013-05-16 07:49:00,59.7,43.1,30.05,SSE,147,0.0,0.0,54,0.00,,---,0.00,VWS V14.01,2013-05-16 14:49:00,
2013-05-16 07:54:00,60.8,43.3,30.05,SSE,162,0.0,0.0,52,0.00,,---,0.00,VWS V14.01,2013-05-16 14:54:00,
2013-05-16 07:59:00,62.1,43.7,30.05,WSW,243,6.3,7.2,51,0.00,,---,0.00,VWS V14.01,2013-05-16 14:59:00,
2013-05-16 08:04:00,63.0,43.0,30.05,WSW,254,8.1,8.3,48,0.00,,---,0.00,VWS V14.01,2013-05-16 15:04:00,
2013-05-16 08:09:00,63.5,41.8,30.05,WSW,241,6.3,8.1,45,0.00,,---,0.00,VWS V14.01,2013-05-16 15:09:00,
2013-05-16 08:15:00,63.7,40.2,30.05,West,273,6.7,8.1,42,0.00,,---,0.00,VWS V14.01,2013-05-16 15:15:00,
2013-05-16 08:20:00,63.7,39.2,30.05,WSW,254,6.7,8.1,40,0.00,,---,0.00,VWS V14.01,2013-05-16 15:20:00,
2013-05-16 08:26:00,64.2,39.7,30.05,SW,226,5.4,7.6,40,0.00,,---,0.00,VWS V14.01,2013-05-16 15:26:00,
2013-05-16 08:31:00,65.5,39.9,30.05,WSW,251,6.3,6.3,39,0.00,,---,0.00,VWS V14.01,2013-05-16 15:31:00,
2013-05-16 08:37:00,65.8,39.2,30.05,West,259,7.6,7.6,38,0.00,,---,0.00,VWS V14.01,2013-05-16 15:37:00,
2013-05-16 08:42:00,66.4,38.6,30.05,SW,218,7.6,9.2,36,0.00,,---,0.00,VWS V14.01,2013-05-16 15:42:00,
2013-05-16 08:48:00,66.6,38.8,30.05,SW,228,3.6,8.3,36,0.00,,---,0.00,VWS V14.01,2013-05-16 15:48:00,
2013-05-16 08:54:00,66.9,39.1,30.05,SW,219,8.1,8.3,36,0.00,,---,0.00,VWS V14.01,2013-05-16 15:54:00,
2013-05-16 09:00:00,67.1,39.3,30.05,WSW,237,5.4,8.3,36,0.00,,---,0.00,VWS V14.01,2013-05-16 16:00:00,
2013-05-16 09:06:00,68.0,39.0,30.05,SW,214,5.4,6.3,34,0.00,,---,0.00,VWS V14.01,2013-05-16 16:06:00,
2013-05-16 09:11:00,68.4,39.3,30.05,SW,234,8.3,8.7,34,0.00,,---,0.00,VWS V14.01,2013-05-16 16:11:00,
2013-05-16 09:16:00,68.5,39.5,30.05,WSW,245,8.1,8.1,34,0.00,,---,0.00,VWS V14.01,2013-05-16 16:16:00,
2013-05-16 09:22:00,69.4,40.2,30.05,WSW,257,7.6,7.6,34,0.00,,---,0.00,VWS V14.01,2013-05-16 16:22:00,
2013-05-16 09:28:00,69.8,39.4,30.05,WSW,253,7.6,8.3,33,0.00,,---,0.00,VWS V14.01,2013-05-16 16:28:00,
2013-05-16 09:33:00,70.5,40.1,30.05,WSW,240,6.3,8.3,33,0.00,,---,0.00,VWS V14.01,2013-05-16 16:33:00,
2013-05-16 09:39:00,71.6,39.8,30.05,West,266,5.8,7.6,32,0.00,,---,0.00,VWS V14.01,2013-05-16 16:39:00,
2013-05-16 09:45:00,72.1,37.7,30.05,West,265,6.3,8.3,28,0.00,,---,0.00,VWS V14.01,2013-05-16 16:45:00,
2013-05-16 09:50:00,72.3,37.9,30.05,West,273,5.8,6.3,28,0.00,,---,0.00,VWS V14.01,2013-05-16 16:50:00,
2013-05-16 09:56:00,73.0,38.5,30.05,SW,235,8.1,8.3,28,0.00,,---,0.00,VWS V14.01,2013-05-16 16:56:00,
2013-05-16 10:01:00,73.6,37.6,30.05,West,265,7.6,10.1,27,0.00,,---,0.00,VWS V14.01,2013-05-16 17:01:00,
2013-05-16 10:06:00,73.9,37.9,30.05,West,266,10.5,10.5,27,0.00,,---,0.00,VWS V14.01,2013-05-16 17:06:00,
2013-05-16 10:12:00,74.1,35.1,30.05,WSW,240,10.1,11.0,24,0.00,,---,0.00,VWS V14.01,2013-05-16 17:12:00,
2013-05-16 10:18:00,73.8,34.8,30.05,WSW,257,7.6,12.3,24,0.00,,---,0.00,VWS V14.01,2013-05-16 17:18:00,
2013-05-16 10:24:00,73.9,34.9,30.05,WSW,239,12.3,12.3,24,0.00,,---,0.00,VWS V14.01,2013-05-16 17:24:00,
2013-05-16 10:29:00,73.6,34.6,30.05,WSW,249,11.0,12.8,24,0.00,,---,0.00,VWS V14.01,2013-05-16 17:29:00,
2013-05-16 10:35:00,72.9,34.0,30.05,WSW,254,8.7,11.0,24,0.00,,---,0.00,VWS V14.01,2013-05-16 17:35:00,
2013-05-16 10:41:00,73.4,34.5,30.05,WSW,246,9.6,11.0,24,0.00,,---,0.00,VWS V14.01,2013-05-16 17:41:00,
2013-05-16 10:46:00,73.8,34.8,30.05,SW,218,10.1,11.0,24,0.00,,---,0.00,VWS V14.01,2013-05-16 17:46:00,
2013-05-16 10:52:00,74.7,35.5,30.05,SW,235,5.8,11.0,24,0.00,,---,0.00,VWS V14.01,2013-05-16 17:52:00,
2013-05-16 10:57:00,74.8,35.7,30.05,SW,230,10.5,10.5,24,0.00,,---,0.00,VWS V14.01,2013-05-16 17:57:00,
2013-05-16 11:02:00,75.6,34.6,30.05,SW,233,10.5,11.0,22,0.00,,---,0.00,VWS V14.01,2013-05-16 18:02:00,
2013-05-16 11:08:00,75.6,34.6,30.05,WSW,247,10.5,11.0,22,0.00,,---,0.00,VWS V14.01,2013-05-16 18:08:00,
2013-05-16 11:14:00,74.8,35.7,30.05,West,259,8.7,10.5,24,0.00,,---,0.00,VWS V14.01,2013-05-16 18:14:00,
2013-05-16 11:19:00,75.2,34.3,30.05,WSW,256,10.1,12.8,22,0.00,,---,0.00,VWS V14.01,2013-05-16 18:19:00,
2013-05-16 11:24:00,74.1,35.1,30.05,NW,306,10.5,10.5,24,0.00,,---,0.00,VWS V14.01,2013-05-16 18:24:00,
2013-05-16 11:30:00,73.8,34.8,30.05,WSW,244,10.1,11.4,24,0.00,,---,0.00,VWS V14.01,2013-05-16 18:30:00,
2013-05-16 11:35:00,74.5,35.4,30.05,SW,235,10.5,13.2,24,0.00,,---,0.00,VWS V14.01,2013-05-16 18:35:00,
2013-05-16 11:40:00,73.6,34.6,30.05,West,276,10.1,12.8,24,0.00,,---,0.00,VWS V14.01,2013-05-16 18:40:00,
2013-05-16 11:45:00,73.4,34.5,30.05,WNW,298,10.1,11.0,24,0.00,,---,0.00,VWS V14.01,2013-05-16 18:45:00,
2013-05-16 11:50:00,72.9,34.0,30.05,West,272,10.1,12.8,24,0.00,,---,0.00,VWS V14.01,2013-05-16 18:50:00,
2013-05-16 11:56:00,73.2,38.6,30.05,WNW,292,11.0,11.4,28,0.00,,---,0.00,VWS V14.01,2013-05-16 18:56:00,
2013-05-16 12:01:00,72.0,33.2,30.05,WSW,246,15.0,15.0,24,0.00,,---,0.00,VWS V14.01,2013-05-16 19:01:00,
2013-05-16 12:07:00,73.6,37.6,30.05,WNW,299,10.1,11.0,27,0.00,,---,0.00,VWS V14.01,2013-05-16 19:07:00,
2013-05-16 12:13:00,72.7,38.2,30.05,NW,307,8.3,10.5,28,0.00,,---,0.00,VWS V14.01,2013-05-16 19:13:00,
2013-05-16 12:18:00,73.6,37.6,30.05,West,273,12.3,12.3,27,0.00,,---,0.00,VWS V14.01,2013-05-16 19:18:00,
2013-05-16 12:23:00,72.9,34.0,30.05,West,261,10.5,11.9,24,0.00,,---,0.00,VWS V14.01,2013-05-16 19:23:00,
2013-05-16 12:29:00,72.7,33.8,30.05,NW,325,12.8,15.4,24,0.00,,---,0.00,VWS V14.01,2013-05-16 19:29:00,
2013-05-16 12:35:00,73.2,34.3,30.05,WSW,258,10.1,13.2,24,0.00,,---,0.00,VWS V14.01,2013-05-16 19:35:00,
2013-05-16 12:40:00,73.8,34.8,30.05,West,274,12.8,13.2,24,0.00,,---,0.00,VWS V14.01,2013-05-16 19:40:00,
2013-05-16 12:46:00,73.0,34.1,30.05,West,278,8.1,8.3,24,0.00,,---,0.00,VWS V14.01,2013-05-16 19:46:00,
2013-05-16 12:51:00,74.3,35.2,30.05,SW,236,9.2,15.4,24,0.00,,---,0.00,VWS V14.01,2013-05-16 19:51:00,
2013-05-16 12:57:00,73.9,34.9,30.05,NW,314,10.5,12.8,24,0.00,,---,0.00,VWS V14.01,2013-05-16 19:57:00,
2013-05-16 13:03:00,72.9,34.0,30.05,WNW,288,8.1,13.2,24,0.00,,---,0.00,VWS V14.01,2013-05-16 20:03:00,
2013-05-16 13:09:00,73.2,34.3,30.05,SW,235,11.0,11.0,24,0.00,,---,0.00,VWS V14.01,2013-05-16 20:09:00,
2013-05-16 13:15:00,73.8,34.8,30.05,NW,315,5.4,11.0,24,0.00,,---,0.00,VWS V14.01,2013-05-16 20:15:00,
2013-05-16 13:20:00,73.2,34.3,30.05,WSW,252,10.5,10.5,24,0.00,,---,0.00,VWS V14.01,2013-05-16 20:20:00,
2013-05-16 13:25:00,73.0,34.1,30.05,NW,305,5.8,12.3,24,0.00,,---,0.00,VWS V14.01,2013-05-16 20:25:00,
2013-05-16 13:30:00,73.9,34.9,30.05,NW,304,8.7,11.0,24,0.00,,---,0.00,VWS V14.01,2013-05-16 20:30:00,
2013-05-16 13:36:00,74.8,35.7,30.05,West,279,6.3,12.3,24,0.00,,---,0.00,VWS V14.01,2013-05-16 20:36:00,
2013-05-16 13:42:00,74.1,35.1,30.02,NW,317,13.2,17.0,24,0.00,,---,0.00,VWS V14.01,2013-05-16 20:42:00,
2013-05-16 13:47:00,73.9,34.9,30.02,WSW,249,4.9,8.1,24,0.00,,---,0.00,VWS V14.01,2013-05-16 20:47:00,
2013-05-16 13:53:00,74.7,35.5,30.02,WNW,285,12.8,15.0,24,0.00,,---,0.00,VWS V14.01,2013-05-16 20:53:00,
2013-05-16 13:58:00,73.9,34.9,30.02,West,277,9.6,10.5,24,0.00,,---,0.00,VWS V14.01,2013-05-16 20:58:00,
2013-05-16 14:04:00,74.5,35.4,30.02,NW,312,8.1,11.0,24,0.00,,---,0.00,VWS V14.01,2013-05-16 21:04:00,
2013-05-16 14:09:00,75.4,34.5,30.02,West,262,10.5,12.3,22,0.00,,---,0.00,VWS V14.01,2013-05-16 21:09:00,
2013-05-16 14:15:00,75.2,34.3,30.02,WSW,250,13.2,13.2,22,0.00,,---,0.00,VWS V14.01,2013-05-16 21:15:00,
2013-05-16 14:21:00,75.6,34.6,30.02,WNW,299,9.6,13.6,22,0.00,,---,0.00,VWS V14.01,2013-05-16 21:21:00,
2013-05-16 14:27:00,76.8,35.7,30.02,West,280,6.3,10.1,22,0.00,,---,0.00,VWS V14.01,2013-05-16 21:27:00,
2013-05-16 14:32:00,76.5,35.4,30.02,WNW,282,6.3,10.5,22,0.00,,---,0.00,VWS V14.01,2013-05-16 21:32:00,
2013-05-16 14:38:00,75.9,34.9,30.02,West,281,12.8,15.4,22,0.00,,---,0.00,VWS V14.01,2013-05-16 21:38:00,
2013-05-16 14:44:00,75.9,34.9,30.02,WNW,291,8.1,11.4,22,0.00,,---,0.00,VWS V14.01,2013-05-16 21:44:00,
2013-05-16 14:50:00,76.3,35.2,30.02,NW,305,8.3,15.4,22,0.00,,---,0.00,VWS V14.01,2013-05-16 21:50:00,
2013-05-16 14:55:00,76.6,35.5,30.02,NW,307,10.1,12.8,22,0.00,,---,0.00,VWS V14.01,2013-05-16 21:55:00,
2013-05-16 15:01:00,74.8,35.7,30.02,WNW,286,11.0,13.2,24,0.00,,---,0.00,VWS V14.01,2013-05-16 22:01:00,
2013-05-16 15:07:00,75.4,34.5,30.02,WNW,288,7.6,11.0,22,0.00,,---,0.00,VWS V14.01,2013-05-16 22:07:00,
2013-05-16 15:13:00,77.4,36.2,30.02,West,263,12.8,12.8,22,0.00,,---,0.00,VWS V14.01,2013-05-16 22:13:00,
2013-05-16 15:19:00,76.1,35.1,30.02,WNW,283,7.6,12.8,22,0.00,,---,0.00,VWS V14.01,2013-05-16 22:19:00,
2013-05-16 15:24:00,75.0,35.8,30.02,WNW,293,13.2,13.2,24,0.00,,---,0.00,VWS V14.01,2013-05-16 22:24:00,
2013-05-16 15:30:00,76.1,35.1,30.02,West,277,11.0,14.1,22,0.00,,---,0.00,VWS V14.01,2013-05-16 22:30:00,
2013-05-16 15:36:00,74.8,35.7,30.02,NW,315,6.3,15.0,24,0.00,,---,0.00,VWS V14.01,2013-05-16 22:36:00,
2013-05-16 15:41:00,75.4,34.5,29.99,SW,233,12.3,13.2,22,0.00,,---,0.00,VWS V14.01,2013-05-16 22:41:00,
2013-05-16 15:47:00,75.7,34.8,29.99,WSW,252,12.8,17.0,22,0.00,,---,0.00,VWS V14.01,2013-05-16 22:47:00,
2013-05-16 15:52:00,75.9,34.9,29.99,West,269,12.8,12.8,22,0.00,,---,0.00,VWS V14.01,2013-05-16 22:52:00,
2013-05-16 15:57:00,77.0,35.8,29.99,West,265,13.2,15.0,22,0.00,,---,0.00,VWS V14.01,2013-05-16 22:57:00,
2013-05-16 16:03:00,76.6,35.5,29.99,West,260,12.3,15.0,22,0.00,,---,0.00,VWS V14.01,2013-05-16 23:03:00,
2013-05-16 16:08:00,74.8,35.7,29.99,WNW,300,15.0,15.0,24,0.00,,---,0.00,VWS V14.01,2013-05-16 23:08:00,
2013-05-16 16:14:00,74.1,35.1,29.99,West,280,6.3,8.3,24,0.00,,---,0.00,VWS V14.01,2013-05-16 23:14:00,
2013-05-16 16:19:00,74.3,35.2,29.99,WNW,303,11.0,13.2,24,0.00,,---,0.00,VWS V14.01,2013-05-16 23:19:00,
2013-05-16 16:25:00,74.5,35.4,29.99,WSW,245,10.1,11.0,24,0.00,,---,0.00,VWS V14.01,2013-05-16 23:25:00,
2013-05-16 16:30:00,74.5,35.4,29.99,WSW,241,13.2,13.2,24,0.00,,---,0.00,VWS V14.01,2013-05-16 23:30:00,
2013-05-16 16:36:00,74.1,35.1,29.99,WSW,256,10.5,10.5,24,0.00,,---,0.00,VWS V14.01,2013-05-16 23:36:00,
2013-05-16 16:42:00,74.7,35.5,29.99,WSW,256,8.7,12.8,24,0.00,,---,0.00,VWS V14.01,2013-05-16 23:42:00,
2013-05-16 16:48:00,73.6,34.6,29.99,NW,304,8.7,12.8,24,0.00,,---,0.00,VWS V14.01,2013-05-16 23:48:00,
2013-05-16 16:54:00,73.6,34.6,29.99,NNW,346,8.1,10.5,24,0.00,,---,0.00,VWS V14.01,2013-05-16 23:54:00,
2013-05-16 17:00:00,72.9,34.0,29.99,NW,324,7.6,10.5,24,0.00,,---,0.00,VWS V14.01,2013-05-17 00:00:00,
2013-05-16 17:06:00,72.9,34.0,29.99,West,259,8.1,10.1,24,0.00,,---,0.00,VWS V14.01,2013-05-17 00:06:00,
2013-05-16 17:12:00,72.1,33.4,29.99,West,272,7.2,9.6,24,0.00,,---,0.00,VWS V14.01,2013-05-17 00:12:00,
2013-05-16 17:17:00,72.7,33.8,29.99,West,272,12.8,13.2,24,0.00,,---,0.00,VWS V14.01,2013-05-17 00:17:00,
2013-05-16 17:23:00,71.4,34.3,29.99,NW,312,10.1,12.3,26,0.00,,---,0.00,VWS V14.01,2013-05-17 00:23:00,
2013-05-16 17:28:00,71.4,34.3,29.99,WSW,258,9.6,16.8,26,0.00,,---,0.00,VWS V14.01,2013-05-17 00:28:00,
2013-05-16 17:34:00,70.9,36.6,29.99,West,260,15.0,15.0,28,0.00,,---,0.00,VWS V14.01,2013-05-17 00:34:00,
2013-05-16 17:39:00,70.0,35.9,29.99,West,263,9.2,13.2,28,0.00,,---,0.00,VWS V14.01,2013-05-17 00:39:00,
2013-05-16 17:45:00,70.0,35.9,29.99,WNW,286,11.0,13.2,28,0.00,,---,0.00,VWS V14.01,2013-05-17 00:45:00,
2013-05-16 17:51:00,69.6,36.8,29.99,WSW,250,10.1,12.3,30,0.00,,---,0.00,VWS V14.01,2013-05-17 00:51:00,
2013-05-16 17:57:00,69.3,39.0,29.99,WNW,299,10.1,12.8,33,0.00,,---,0.00,VWS V14.01,2013-05-17 00:57:00,
2013-05-16 18:03:00,68.9,38.6,29.99,WNW,283,8.3,10.5,33,0.00,,---,0.00,VWS V14.01,2013-05-17 01:03:00,
2013-05-16 18:08:00,68.2,38.0,29.99,NW,315,11.9,11.9,33,0.00,,---,0.00,VWS V14.01,2013-05-17 01:08:00,
2013-05-16 18:14:00,67.1,37.1,29.99,WNW,284,8.1,8.7,33,0.00,,---,0.00,VWS V14.01,2013-05-17 01:14:00,
2013-05-16 18:19:00,66.6,37.7,29.99,WNW,302,4.9,11.0,34,0.00,,---,0.00,VWS V14.01,2013-05-17 01:19:00,
2013-05-16 18:25:00,66.2,37.4,29.99,WNW,289,8.1,8.3,34,0.00,,---,0.00,VWS V14.01,2013-05-17 01:25:00,
2013-05-16 18:30:00,66.4,37.6,29.99,WNW,302,8.7,12.3,34,0.00,,---,0.00,VWS V14.01,2013-05-17 01:30:00,
2013-05-16 18:36:00,65.7,38.0,29.99,WNW,302,9.2,9.2,36,0.00,,---,0.00,VWS V14.01,2013-05-17 01:36:00,
2013-05-16 18:42:00,65.1,37.5,29.99,NW,305,8.1,8.3,36,0.00,,---,0.00,VWS V14.01,2013-05-17 01:42:00,
2013-05-16 18:47:00,64.8,37.2,29.99,WNW,289,8.3,8.3,36,0.00,,---,0.00,VWS V14.01,2013-05-17 01:47:00,
2013-05-16 18:53:00,63.9,36.4,29.99,NNW,333,10.5,10.5,36,0.00,,---,0.00,VWS V14.01,2013-05-17 01:53:00,
2013-05-16 18:59:00,63.3,37.0,29.99,WNW,293,6.3,8.7,38,0.00,,---,0.00,VWS V14.01,2013-05-17 01:59:00,
2013-05-16 19:05:00,62.6,36.3,29.99,WNW,297,7.6,7.6,38,0.00,,---,0.00,VWS V14.01,2013-05-17 02:05:00,
2013-05-16 19:10:00,62.1,36.8,29.99,West,266,8.1,8.1,39,0.00,,---,0.00,VWS V14.01,2013-05-17 02:10:00,
2013-05-16 19:16:00,61.5,37.3,29.99,West,260,8.7,8.7,40,0.00,,---,0.00,VWS V14.01,2013-05-17 02:16:00,
2013-05-16 19:21:00,61.2,37.0,29.99,West,261,6.3,8.1,40,0.00,,---,0.00,VWS V14.01,2013-05-17 02:21:00,
2013-05-16 19:27:00,60.4,37.3,29.99,West,270,5.8,6.3,42,0.00,,---,0.00,VWS V14.01,2013-05-17 02:27:00,
2013-05-16 19:32:00,59.9,36.8,29.99,WNW,295,5.8,8.3,42,0.00,,---,0.00,VWS V14.01,2013-05-17 02:32:00,
2013-05-16 19:38:00,59.4,37.2,29.99,WNW,301,5.8,5.8,44,0.00,,---,0.00,VWS V14.01,2013-05-17 02:38:00,
2013-05-16 19:43:00,59.2,37.9,29.99,NW,316,5.8,5.8,45,0.00,,---,0.00,VWS V14.01,2013-05-17 02:43:00,
2013-05-16 19:49:00,59.0,38.5,29.99,SSW,197,3.6,3.6,46,0.00,,---,0.00,VWS V14.01,2013-05-17 02:49:00,
2013-05-16 19:55:00,58.8,38.4,29.99,SSW,211,7.6,7.6,46,0.00,,---,0.00,VWS V14.01,2013-05-17 02:55:00,
2013-05-16 20:00:00,58.6,39.8,29.99,SW,218,3.1,5.4,50,0.00,,---,0.00,VWS V14.01,2013-05-17 03:00:00,
2013-05-16 20:06:00,58.6,39.8,29.99,WSW,250,6.3,8.1,50,0.00,,---,0.00,VWS V14.01,2013-05-17 03:06:00,
2013-05-16 20:11:00,58.6,40.6,29.99,SW,225,5.8,6.3,51,0.00,,---,0.00,VWS V14.01,2013-05-17 03:11:00,
2013-05-16 20:16:00,58.3,40.2,29.99,SSW,197,5.4,5.8,51,0.00,,---,0.00,VWS V14.01,2013-05-17 03:16:00,
2013-05-16 20:22:00,58.1,40.8,29.99,WSW,245,5.8,5.8,52,0.00,,---,0.00,VWS V14.01,2013-05-17 03:22:00,
2013-05-16 20:27:00,57.7,40.5,29.99,SW,223,0.0,2.7,52,0.00,,---,0.00,VWS V14.01,2013-05-17 03:27:00,
2013-05-16 20:33:00,57.2,40.0,29.99,SW,236,3.6,4.5,52,0.00,,---,0.00,VWS V14.01,2013-05-17 03:33:00,
2013-05-16 20:38:00,56.8,39.7,30.02,WSW,238,2.7,3.1,52,0.00,,---,0.00,VWS V14.01,2013-05-17 03:38:00,
2013-05-16 20:44:00,56.5,39.3,30.02,SW,223,0.0,0.0,52,0.00,,---,0.00,VWS V14.01,2013-05-17 03:44:00,
2013-05-16 20:50:00,56.1,39.0,30.02,SW,234,3.1,4.0,52,0.00,,---,0.00,VWS V14.01,2013-05-17 03:50:00,
2013-05-16 20:55:00,55.9,39.5,30.02,SW,232,0.0,0.0,54,0.00,,---,0.00,VWS V14.01,2013-05-17 03:55:00,
2013-05-16 21:01:00,56.1,39.7,30.02,SW,217,0.0,0.0,54,0.00,,---,0.00,VWS V14.01,2013-05-17 04:01:00,
2013-05-16 21:02:00,56.1,39.7,30.02,SW,217,0.0,0.0,54,0.00,,---,0.00,VWS V14.01,2013-05-17 04:02:00,
2013-05-16 21:03:00,56.1,39.7,30.02,SW,217,0.0,0.0,54,0.00,,---,0.00,VWS V14.01,2013-05-17 04:03:00,
2013-05-16 21:06:00,56.1,39.7,30.02,SSE,160,0.0,0.0,54,0.00,,---,0.00,VWS V14.01,2013-05-17 04:06:00,
2013-05-16 21:08:00,55.9,39.5,30.02,South,186,0.0,0.0,54,0.00,,---,0.00,VWS V14.01,2013-05-17 04:08:00,
2013-05-16 21:13:00,55.6,39.2,30.02,South,172,4.0,4.0,54,0.00,,---,0.00,VWS V14.01,2013-05-17 04:13:00,
2013-05-16 21:19:00,55.0,38.7,30.02,SSE,166,3.6,3.6,54,0.00,,---,0.00,VWS V14.01,2013-05-17 04:19:00,
2013-05-16 21:24:00,54.5,38.2,30.02,SSE,166,3.6,3.6,54,0.00,,---,0.00,VWS V14.01,2013-05-17 04:24:00,
2013-05-16 21:29:00,54.3,38.0,30.02,WNW,294,0.0,0.0,54,0.00,,---,0.00,VWS V14.01,2013-05-17 04:29:00,
2013-05-16 21:34:00,54.3,38.7,30.02,WNW,294,0.0,0.0,56,0.00,,---,0.00,VWS V14.01,2013-05-17 04:34:00,
2013-05-16 21:39:00,53.8,38.2,30.02,WNW,294,0.0,0.0,56,0.00,,---,0.00,VWS V14.01,2013-05-17 04:39:00,
2013-05-16 21:45:00,53.6,38.1,30.02,SW,226,0.0,0.0,56,0.00,,---,0.00,VWS V14.01,2013-05-17 04:45:00,
2013-05-16 21:51:00,54.0,38.4,30.02,SW,226,0.0,0.0,56,0.00,,---,0.00,VWS V14.01,2013-05-17 04:51:00,
2013-05-16 21:56:00,53.8,38.2,30.02,SW,215,0.0,0.0,56,0.00,,---,0.00,VWS V14.01,2013-05-17 04:56:00,
2013-05-16 22:02:00,53.6,38.1,30.02,SSW,200,0.0,0.0,56,0.00,,---,0.00,VWS V14.01,2013-05-17 05:02:00,
2013-05-16 22:08:00,53.4,38.6,30.02,SW,222,0.0,0.0,57,0.00,,---,0.00,VWS V14.01,2013-05-17 05:08:00,
2013-05-16 22:13:00,53.1,38.2,30.02,SW,221,0.0,0.0,57,0.00,,---,0.00,VWS V14.01,2013-05-17 05:13:00,
2013-05-16 22:19:00,53.1,38.2,30.02,West,264,0.0,0.0,57,0.00,,---,0.00,VWS V14.01,2013-05-17 05:19:00,
2013-05-16 22:24:00,52.3,37.6,30.02,NNE,27,2.7,2.7,57,0.00,,---,0.00,VWS V14.01,2013-05-17 05:24:00,
2013-05-16 22:29:00,51.6,36.9,30.02,NNE,23,2.7,3.6,57,0.00,,---,0.00,VWS V14.01,2013-05-17 05:29:00,
2013-05-16 22:34:00,51.1,36.4,30.02,North,9,0.0,0.0,57,0.00,,---,0.00,VWS V14.01,2013-05-17 05:34:00,
2013-05-16 22:39:00,50.5,36.5,30.02,North,6,0.0,0.0,58,0.00,,---,0.00,VWS V14.01,2013-05-17 05:39:00,
2013-05-16 22:45:00,50.4,36.4,30.02,NW,304,2.2,2.2,58,0.00,,---,0.00,VWS V14.01,2013-05-17 05:45:00,
2013-05-16 22:50:00,50.5,36.5,30.02,West,276,0.0,0.0,58,0.00,,---,0.00,VWS V14.01,2013-05-17 05:50:00,
2013-05-16 22:56:00,50.9,36.9,30.02,WSW,251,0.0,0.0,58,0.00,,---,0.00,VWS V14.01,2013-05-17 05:56:00,
2013-05-16 23:01:00,51.1,37.7,30.02,WSW,251,0.0,0.0,60,0.00,,---,0.00,VWS V14.01,2013-05-17 06:01:00,
2013-05-16 23:07:00,51.1,37.7,30.02,West,277,0.0,0.0,60,0.00,,---,0.00,VWS V14.01,2013-05-17 06:07:00,
2013-05-16 23:12:00,51.3,37.9,30.02,West,273,3.6,4.0,60,0.00,,---,0.00,VWS V14.01,2013-05-17 06:12:00,
2013-05-16 23:18:00,51.3,38.5,30.02,WSW,251,5.4,5.4,62,0.00,,---,0.00,VWS V14.01,2013-05-17 06:18:00,
2013-05-16 23:23:00,51.6,39.5,30.02,WSW,252,4.9,4.9,63,0.00,,---,0.00,VWS V14.01,2013-05-17 06:23:00,
2013-05-16 23:29:00,51.4,39.3,30.02,WSW,256,4.9,4.9,63,0.00,,---,0.00,VWS V14.01,2013-05-17 06:29:00,
2013-05-16 23:34:00,51.4,39.3,30.02,WSW,245,2.2,2.2,63,0.00,,---,0.00,VWS V14.01,2013-05-17 06:34:00,
2013-05-16 23:39:00,51.4,39.9,30.02,SW,232,0.0,0.0,64,0.00,,---,0.00,VWS V14.01,2013-05-17 06:39:00,
2013-05-16 23:45:00,51.4,39.9,30.02,SW,232,0.0,0.0,64,0.00,,---,0.00,VWS V14.01,2013-05-17 06:45:00,
2013-05-16 23:50:00,51.4,39.9,30.02,SW,232,0.0,0.0,64,0.00,,---,0.00,VWS V14.01,2013-05-17 06:50:00,
2013-05-16 23:56:00,51.3,39.7,30.02,SSE,157,0.0,0.0,64,0.00,,---,0.00,VWS V14.01,2013-05-17 06:56:00,